Buoy 56564

sailwx.info

Track history (hours):
 
Tides and Currents Weather Stations Pressure Air Temp Water Temp Dewpoint Dewpoint Depression Visibility Wind Speed Wind Dir Waves Ship Positions

Drifting buoy 56564

Last reported at 2018-Feb-24 14:30 UTC. Time now 2018-Feb-24 15:57 UTC.
Position S 40°14' E 017°19'.

Barometer 1018.3 mb

Date/timePositionNaut miles runAvg speedWind from/ knotsBaromVisibWave heightAir tempDewpointWater temp
2018-Feb-24 14:30S 40°14' E 017°19'0 0.5 1018.3
2018-Feb-24 13:30S 40°14' E 017°19'0 0.0 1017.1
2018-Feb-24 12:30S 40°14' E 017°19'2 0.4 1016.8
2018-Feb-24 07:30S 40°16' E 017°17'1 0.6 1014.2
2018-Feb-24 06:30S 40°17' E 017°17'1 0.6 1013.4
2018-Feb-24 05:30S 40°17' E 017°17'1 0.8 1012.1
2018-Feb-24 04:30S 40°18' E 017°17'1 0.6 1010.8
2018-Feb-24 03:30S 40°19' E 017°17'2 2.3 1009.6
2018-Feb-24 02:30S 40°20' E 017°15'4 1.9 1009.2
2018-Feb-24 00:30S 40°22' E 017°10'2 0.5
2018-Feb-23 20:30S 40°22' E 017°08'0 0.5 1009.7
2018-Feb-23 19:30S 40°22' E 017°07'2 2.2 1009.6
2018-Feb-23 18:30S 40°21' E 017°05'1 1.1 1008.7
2018-Feb-23 17:30S 40°22' E 017°04'0 0.5 1008.0
2018-Feb-23 16:30S 40°22' E 017°03'1 1.1 1007.3
2018-Feb-23 15:30S 40°21' E 017°02'0 0.5 1006.5
2018-Feb-23 14:30S 40°21' E 017°01'1 0.6 1006.3
2018-Feb-23 13:30S 40°20' E 017°01'2 1.5 1005.8
2018-Feb-23 12:30S 40°22' E 017°00'1 0.1 1005.5
2018-Feb-23 08:30S 40°22' E 017°00'1 0.6 1003.1
2018-Feb-23 06:30S 40°23' E 017°00'1 1.3 1001.3
2018-Feb-23 05:30S 40°25' E 016°59'1 0.6 1000.0
2018-Feb-23 04:30S 40°25' E 016°59'1 0.7 998.8
2018-Feb-23 02:30S 40°25' E 016°58'3 1.5 996.8
2018-Feb-23 00:30S 40°23' E 016°55'5 1.3 998.1
2018-Feb-22 20:30S 40°18' E 016°52'1 0.8 1003.4
2018-Feb-22 19:30S 40°17' E 016°51'2 1.5 1004.5
2018-Feb-22 18:30S 40°16' E 016°50'1 1.1 1004.9
2018-Feb-22 17:30S 40°16' E 016°49'2 1.5 1005.3
2018-Feb-22 16:30S 40°14' E 016°47'4 2.2 1005.7
2018-Feb-22 14:30S 40°10' E 016°46'7 6.6 1007.6
2018-Feb-22 13:30S 40°04' E 016°42'2 0.4 1008.8
2018-Feb-22 08:30S 40°02' E 016°41'5 2.7 1013.5
2018-Feb-22 06:30S 39°57' E 016°41'1 0.8 1014.5
2018-Feb-22 05:30S 39°56' E 016°40'3 3.0 1014.9
2018-Feb-22 04:30S 39°53' E 016°40'2 1.5 1015.0
2018-Feb-22 03:30S 39°52' E 016°38'3 3.1 1015.3
2018-Feb-22 02:30S 39°49' E 016°37'0 0.0 1015.9
2018-Feb-22 00:30S 39°49' E 016°37'6 6.0 1017.4
2018-Feb-21 23:30S 39°43' E 016°37'2 0.9 1018.1
2018-Feb-21 21:30S 39°41' E 016°37'6 3.1 1019.3
2018-Feb-21 19:30S 39°35' E 016°39'1 1.3 1020.5
2018-Feb-21 18:30S 39°34' E 016°40'2 2.3 1020.4
2018-Feb-21 17:30S 39°32' E 016°41'3 3.0 1020.2
2018-Feb-21 16:30S 39°29' E 016°42'0 0.5 1020.2
2018-Feb-21 15:30S 39°29' E 016°43'3 1.5 1020.5
2018-Feb-21 13:30S 39°27' E 016°45'12 2.1 1021.4
2018-Feb-21 07:30S 39°16' E 016°53'0 0.0 1022.2
2018-Feb-21 06:30S 39°16' E 016°53'1 0.6 1022.0
2018-Feb-21 05:30S 39°16' E 016°53'2 2.0 1021.8
2018-Feb-21 04:30S 39°14' E 016°54'2 2.4 1021.3
2018-Feb-21 03:30S 39°11' E 016°55'0 0.0 1020.7
2018-Feb-21 02:30S 39°11' E 016°55'3 3.3 1020.5
2018-Feb-21 01:30S 39°08' E 016°56'3 2.6 1020.5
2018-Feb-21 00:30S 39°06' E 016°58'2 1.9 1020.9
2018-Feb-20 23:30S 39°04' E 016°58'7 1.8 1021.1
2018-Feb-20 19:30S 38°58' E 017°02'0 0.0 1020.2
2018-Feb-20 18:30S 38°58' E 017°02'4 4.1 1019.4
2018-Feb-20 17:30S 38°55' E 017°07'0 0.0 1018.7
2018-Feb-20 16:30S 38°55' E 017°07'1 0.8 1017.9
2018-Feb-20 15:30S 38°55' E 017°06'2 1.8 1017.6
2018-Feb-20 14:30S 38°53' E 017°08'1 0.8 1017.3
2018-Feb-20 13:30S 38°53' E 017°08'4 0.7 1017.2
2018-Feb-20 07:30S 38°50' E 017°13'1 1.2 1016.3
2018-Feb-20 06:30S 38°49' E 017°13'3 2.6 1015.9
2018-Feb-20 05:30S 38°47' E 017°14'1 0.8 1015.9
2018-Feb-20 04:30S 38°46' E 017°14'1 1.3 1015.4
2018-Feb-20 03:30S 38°45' E 017°14'2 1.9 1015.1
2018-Feb-20 02:30S 38°43' E 017°15'0 0.0 1015.2
2018-Feb-20 01:30S 38°43' E 017°15'2 1.2 1015.5
2018-Feb-19 23:30S 38°41' E 017°16'6 1.9 1016.1
2018-Feb-19 20:30S 38°36' E 017°19'3 2.6 1016.0
2018-Feb-19 19:30S 38°34' E 017°22'1 0.6 1015.7
2018-Feb-19 18:30S 38°35' E 017°22'2 1.5 1015.1
2018-Feb-19 17:30S 38°34' E 017°23'1 1.3 1014.8
2018-Feb-19 16:30S 38°32' E 017°23'2 1.5 1014.6
2018-Feb-19 15:30S 38°31' E 017°25'1 0.6 1014.6
2018-Feb-19 14:30S 38°31' E 017°25'0 0.0 1014.8
2018-Feb-19 13:30S 38°31' E 017°25'7 1.4 1014.8
2018-Feb-19 08:30S 38°25' E 017°20'1 0.4 1015.2
2018-Feb-19 06:30S 38°24' E 017°20'1 1.3 1015.0
2018-Feb-19 05:30S 38°23' E 017°20'2 2.0 1014.5
2018-Feb-19 04:30S 38°21' E 017°21'2 1.9 1014.0
2018-Feb-19 03:30S 38°19' E 017°22'2 2.0 1013.5
2018-Feb-19 02:30S 38°17' E 017°23'0 0.0 1012.9
2018-Feb-19 01:30S 38°17' E 017°23'6 3.1 1012.8
2018-Feb-18 23:30S 38°15' E 017°30'3 1.1 1012.7
2018-Feb-18 20:30S 38°15' E 017°34'0 0.2 1011.0
2018-Feb-18 18:30S 38°15' E 017°35'2 2.2 1008.9
2018-Feb-18 17:30S 38°16' E 017°37'2 1.5 1007.8
2018-Feb-18 16:30S 38°17' E 017°38'0 0.5 1006.7
2018-Feb-18 15:30S 38°17' E 017°39'1 1.3 1006.3
2018-Feb-18 14:30S 38°19' E 017°40'1 1.4 1005.7
2018-Feb-18 13:30S 38°19' E 017°41'1 0.2 1005.4
2018-Feb-18 08:30S 38°19' E 017°43'2 1.1 1004.7
2018-Feb-18 06:30S 38°17' E 017°45'1 0.6 1005.1
2018-Feb-18 05:30S 38°17' E 017°45'2 2.4 1005.2
2018-Feb-18 04:30S 38°16' E 017°48'1 0.8 1005.3
2018-Feb-18 03:30S 38°16' E 017°49'5 2.7 1005.5
2018-Feb-18 01:30S 38°14' E 017°55'0 0.0 1006.5
2018-Feb-17 23:30S 38°14' E 017°55'9 2.8 1008.1
2018-Feb-17 20:30S 38°15' E 018°06'0 0.0 1010.6
2018-Feb-17 19:30S 38°15' E 018°06'2 1.5 1011.1
2018-Feb-17 18:30S 38°14' E 018°08'3 2.8 1010.9
2018-Feb-17 17:30S 38°14' E 018°11'2 1.9 1011.1
2018-Feb-17 16:30S 38°14' E 018°14'0 0.0 1011.0
2018-Feb-17 15:30S 38°14' E 018°14'3 3.3 1011.1
2018-Feb-17 14:30S 38°14' E 018°18'3 3.1 1011.9
2018-Feb-17 13:30S 38°13' E 018°22'0 0.0 1012.7
2018-Feb-17 12:30S 38°13' E 018°22'8 1.9 1013.4
2018-Feb-17 08:30S 38°15' E 018°31'6 2.8 1015.3
2018-Feb-17 06:30S 38°16' E 018°38'3 2.9 1015.8
2018-Feb-17 05:30S 38°16' E 018°42'1 0.8 1015.9
2018-Feb-17 04:30S 38°17' E 018°43'5 4.9 1015.7
2018-Feb-17 03:30S 38°18' E 018°49'6 2.0 1015.5
2018-Feb-17 00:30S 38°20' E 018°56'5 5.2 1016.6
2018-Feb-16 23:30S 38°23' E 019°01'4 2.2 1017.3
2018-Feb-16 21:30S 38°26' E 019°05'6 1.9 1017.7
2018-Feb-16 18:30S 38°30' E 019°11'3 3.4 1017.0
2018-Feb-16 17:30S 38°32' E 019°14'0 0.0 1016.2
2018-Feb-16 16:30S 38°32' E 019°14'7 3.7 1015.6
2018-Feb-16 14:30S 38°37' E 019°22'0 0.0 1014.8
2018-Feb-16 12:30S 38°37' E 019°22'12 2.4 1014.6
2018-Feb-16 07:30S 38°44' E 019°34'4 4.4 1011.9
2018-Feb-16 06:30S 38°46' E 019°38'7 3.6 1011.2
2018-Feb-16 04:30S 38°52' E 019°44'5 4.6 1008.7
2018-Feb-16 03:30S 38°55' E 019°48'0 0.0 1007.5
2018-Feb-16 02:30S 38°55' E 019°48'3 1.4 1006.5
2018-Feb-16 00:30S 38°58' E 019°50'2 0.4 1004.9
2018-Feb-15 19:30S 38°59' E 019°51'0 0.0 1005.8
2018-Feb-15 18:30S 38°59' E 019°51'1 0.8 1006.0
2018-Feb-15 17:30S 38°59' E 019°52'0 0.0 1006.4
2018-Feb-15 16:30S 38°59' E 019°52'1 0.6 1006.9
2018-Feb-15 15:30S 38°58' E 019°52'0 0.5 1007.0
2018-Feb-15 14:30S 38°58' E 019°52'2 1.5 1007.8
2018-Feb-15 13:30S 38°57' E 019°53'11 1.4 1008.3
2018-Feb-15 05:30S 38°53' E 020°07'2 2.2 1012.3
2018-Feb-15 04:30S 38°52' E 020°09'1 0.8 1012.2
2018-Feb-15 03:30S 38°51' E 020°10'2 2.0 1012.0
2018-Feb-15 02:30S 38°50' E 020°12'4 2.0 1012.0
2018-Feb-15 00:30S 38°48' E 020°16'8 2.6 1013.1
2018-Feb-14 21:30S 38°44' E 020°25'2 1.8 1014.2
2018-Feb-14 20:30S 38°43' E 020°26'7 7.0 1014.2
2018-Feb-14 19:30S 38°38' E 020°34'0 0.0 1014.4
2018-Feb-14 18:30S 38°38' E 020°34'4 4.1 1013.5
2018-Feb-14 17:30S 38°35' E 020°36'2 2.4 1012.8
2018-Feb-14 16:30S 38°34' E 020°39'3 2.8 1012.7
2018-Feb-14 15:30S 38°32' E 020°41'   1012.6
Track history (hours):
 
Tides and Currents Weather Stations Pressure Air Temp Water Temp Dewpoint Dewpoint Depression Visibility Wind Speed Wind Dir Waves Ship Positions

Drifting buoy 56564

Last reported at 2018-Feb-24 14:30 UTC. Time now 2018-Feb-24 15:57 UTC.
Position S 40°14' E 017°19'.

Barometer 1018.3 mb

Date/timePositionNaut miles runAvg speedWind from/ knotsBaromVisibWave heightAir tempDewpointWater temp
2018-Feb-24 14:30S 40°14' E 017°19'0 0.5 1018.3
2018-Feb-24 13:30S 40°14' E 017°19'0 0.0 1017.1
2018-Feb-24 12:30S 40°14' E 017°19'2 0.4 1016.8
2018-Feb-24 07:30S 40°16' E 017°17'1 0.6 1014.2
2018-Feb-24 06:30S 40°17' E 017°17'1 0.6 1013.4
2018-Feb-24 05:30S 40°17' E 017°17'1 0.8 1012.1
2018-Feb-24 04:30S 40°18' E 017°17'1 0.6 1010.8
2018-Feb-24 03:30S 40°19' E 017°17'2 2.3 1009.6
2018-Feb-24 02:30S 40°20' E 017°15'4 1.9 1009.2
2018-Feb-24 00:30S 40°22' E 017°10'2 0.5
2018-Feb-23 20:30S 40°22' E 017°08'0 0.5 1009.7
2018-Feb-23 19:30S 40°22' E 017°07'2 2.2 1009.6
2018-Feb-23 18:30S 40°21' E 017°05'1 1.1 1008.7
2018-Feb-23 17:30S 40°22' E 017°04'0 0.5 1008.0
2018-Feb-23 16:30S 40°22' E 017°03'1 1.1 1007.3
2018-Feb-23 15:30S 40°21' E 017°02'0 0.5 1006.5
2018-Feb-23 14:30S 40°21' E 017°01'1 0.6 1006.3
2018-Feb-23 13:30S 40°20' E 017°01'2 1.5 1005.8
2018-Feb-23 12:30S 40°22' E 017°00'1 0.1 1005.5
2018-Feb-23 08:30S 40°22' E 017°00'1 0.6 1003.1
2018-Feb-23 06:30S 40°23' E 017°00'1 1.3 1001.3
2018-Feb-23 05:30S 40°25' E 016°59'1 0.6 1000.0
2018-Feb-23 04:30S 40°25' E 016°59'1 0.7 998.8
2018-Feb-23 02:30S 40°25' E 016°58'3 1.5 996.8
2018-Feb-23 00:30S 40°23' E 016°55'5 1.3 998.1
2018-Feb-22 20:30S 40°18' E 016°52'1 0.8 1003.4
2018-Feb-22 19:30S 40°17' E 016°51'2 1.5 1004.5
2018-Feb-22 18:30S 40°16' E 016°50'1 1.1 1004.9
2018-Feb-22 17:30S 40°16' E 016°49'2 1.5 1005.3
2018-Feb-22 16:30S 40°14' E 016°47'4 2.2 1005.7
2018-Feb-22 14:30S 40°10' E 016°46'7 6.6 1007.6
2018-Feb-22 13:30S 40°04' E 016°42'2 0.4 1008.8
2018-Feb-22 08:30S 40°02' E 016°41'5 2.7 1013.5
2018-Feb-22 06:30S 39°57' E 016°41'1 0.8 1014.5
2018-Feb-22 05:30S 39°56' E 016°40'3 3.0 1014.9
2018-Feb-22 04:30S 39°53' E 016°40'2 1.5 1015.0
2018-Feb-22 03:30S 39°52' E 016°38'3 3.1 1015.3
2018-Feb-22 02:30S 39°49' E 016°37'0 0.0 1015.9
2018-Feb-22 00:30S 39°49' E 016°37'6 6.0 1017.4
2018-Feb-21 23:30S 39°43' E 016°37'2 0.9 1018.1
2018-Feb-21 21:30S 39°41' E 016°37'6 3.1 1019.3
2018-Feb-21 19:30S 39°35' E 016°39'1 1.3 1020.5
2018-Feb-21 18:30S 39°34' E 016°40'2 2.3 1020.4
2018-Feb-21 17:30S 39°32' E 016°41'3 3.0 1020.2
2018-Feb-21 16:30S 39°29' E 016°42'0 0.5 1020.2
2018-Feb-21 15:30S 39°29' E 016°43'3 1.5 1020.5
2018-Feb-21 13:30S 39°27' E 016°45'12 2.1 1021.4
2018-Feb-21 07:30S 39°16' E 016°53'0 0.0 1022.2
2018-Feb-21 06:30S 39°16' E 016°53'1 0.6 1022.0
2018-Feb-21 05:30S 39°16' E 016°53'2 2.0 1021.8
2018-Feb-21 04:30S 39°14' E 016°54'2 2.4 1021.3
2018-Feb-21 03:30S 39°11' E 016°55'0 0.0 1020.7
2018-Feb-21 02:30S 39°11' E 016°55'3 3.3 1020.5
2018-Feb-21 01:30S 39°08' E 016°56'3 2.6 1020.5
2018-Feb-21 00:30S 39°06' E 016°58'2 1.9 1020.9
2018-Feb-20 23:30S 39°04' E 016°58'7 1.8 1021.1
2018-Feb-20 19:30S 38°58' E 017°02'0 0.0 1020.2
2018-Feb-20 18:30S 38°58' E 017°02'4 4.1 1019.4
2018-Feb-20 17:30S 38°55' E 017°07'0 0.0 1018.7
2018-Feb-20 16:30S 38°55' E 017°07'1 0.8 1017.9
2018-Feb-20 15:30S 38°55' E 017°06'2 1.8 1017.6
2018-Feb-20 14:30S 38°53' E 017°08'1 0.8 1017.3
2018-Feb-20 13:30S 38°53' E 017°08'4 0.7 1017.2
2018-Feb-20 07:30S 38°50' E 017°13'1 1.2 1016.3
2018-Feb-20 06:30S 38°49' E 017°13'3 2.6 1015.9
2018-Feb-20 05:30S 38°47' E 017°14'1 0.8 1015.9
2018-Feb-20 04:30S 38°46' E 017°14'1 1.3 1015.4
2018-Feb-20 03:30S 38°45' E 017°14'2 1.9 1015.1
2018-Feb-20 02:30S 38°43' E 017°15'0 0.0 1015.2
2018-Feb-20 01:30S 38°43' E 017°15'2 1.2 1015.5
2018-Feb-19 23:30S 38°41' E 017°16'6 1.9 1016.1
2018-Feb-19 20:30S 38°36' E 017°19'3 2.6 1016.0
2018-Feb-19 19:30S 38°34' E 017°22'1 0.6 1015.7
2018-Feb-19 18:30S 38°35' E 017°22'2 1.5 1015.1
2018-Feb-19 17:30S 38°34' E 017°23'1 1.3 1014.8
2018-Feb-19 16:30S 38°32' E 017°23'2 1.5 1014.6
2018-Feb-19 15:30S 38°31' E 017°25'1 0.6 1014.6
2018-Feb-19 14:30S 38°31' E 017°25'0 0.0 1014.8
2018-Feb-19 13:30S 38°31' E 017°25'7 1.4 1014.8
2018-Feb-19 08:30S 38°25' E 017°20'1 0.4 1015.2
2018-Feb-19 06:30S 38°24' E 017°20'1 1.3 1015.0
2018-Feb-19 05:30S 38°23' E 017°20'2 2.0 1014.5
2018-Feb-19 04:30S 38°21' E 017°21'2 1.9 1014.0
2018-Feb-19 03:30S 38°19' E 017°22'2 2.0 1013.5
2018-Feb-19 02:30S 38°17' E 017°23'0 0.0 1012.9
2018-Feb-19 01:30S 38°17' E 017°23'6 3.1 1012.8
2018-Feb-18 23:30S 38°15' E 017°30'3 1.1 1012.7
2018-Feb-18 20:30S 38°15' E 017°34'0 0.2 1011.0
2018-Feb-18 18:30S 38°15' E 017°35'2 2.2 1008.9
2018-Feb-18 17:30S 38°16' E 017°37'2 1.5 1007.8
2018-Feb-18 16:30S 38°17' E 017°38'0 0.5 1006.7
2018-Feb-18 15:30S 38°17' E 017°39'1 1.3 1006.3
2018-Feb-18 14:30S 38°19' E 017°40'1 1.4 1005.7
2018-Feb-18 13:30S 38°19' E 017°41'1 0.2 1005.4
2018-Feb-18 08:30S 38°19' E 017°43'2 1.1 1004.7
2018-Feb-18 06:30S 38°17' E 017°45'1 0.6 1005.1
2018-Feb-18 05:30S 38°17' E 017°45'2 2.4 1005.2
2018-Feb-18 04:30S 38°16' E 017°48'1 0.8 1005.3
2018-Feb-18 03:30S 38°16' E 017°49'5 2.7 1005.5
2018-Feb-18 01:30S 38°14' E 017°55'0 0.0 1006.5
2018-Feb-17 23:30S 38°14' E 017°55'9 2.8 1008.1
2018-Feb-17 20:30S 38°15' E 018°06'0 0.0 1010.6
2018-Feb-17 19:30S 38°15' E 018°06'2 1.5 1011.1
2018-Feb-17 18:30S 38°14' E 018°08'3 2.8 1010.9
2018-Feb-17 17:30S 38°14' E 018°11'2 1.9 1011.1
2018-Feb-17 16:30S 38°14' E 018°14'0 0.0 1011.0
2018-Feb-17 15:30S 38°14' E 018°14'3 3.3 1011.1
2018-Feb-17 14:30S 38°14' E 018°18'3 3.1 1011.9
2018-Feb-17 13:30S 38°13' E 018°22'0 0.0 1012.7
2018-Feb-17 12:30S 38°13' E 018°22'8 1.9 1013.4
2018-Feb-17 08:30S 38°15' E 018°31'6 2.8 1015.3
2018-Feb-17 06:30S 38°16' E 018°38'3 2.9 1015.8
2018-Feb-17 05:30S 38°16' E 018°42'1 0.8 1015.9
2018-Feb-17 04:30S 38°17' E 018°43'5 4.9 1015.7
2018-Feb-17 03:30S 38°18' E 018°49'6 2.0 1015.5
2018-Feb-17 00:30S 38°20' E 018°56'5 5.2 1016.6
2018-Feb-16 23:30S 38°23' E 019°01'4 2.2 1017.3
2018-Feb-16 21:30S 38°26' E 019°05'6 1.9 1017.7
2018-Feb-16 18:30S 38°30' E 019°11'3 3.4 1017.0
2018-Feb-16 17:30S 38°32' E 019°14'0 0.0 1016.2
2018-Feb-16 16:30S 38°32' E 019°14'7 3.7 1015.6
2018-Feb-16 14:30S 38°37' E 019°22'0 0.0 1014.8
2018-Feb-16 12:30S 38°37' E 019°22'12 2.4 1014.6
2018-Feb-16 07:30S 38°44' E 019°34'4 4.4 1011.9
2018-Feb-16 06:30S 38°46' E 019°38'7 3.6 1011.2
2018-Feb-16 04:30S 38°52' E 019°44'5 4.6 1008.7
2018-Feb-16 03:30S 38°55' E 019°48'0 0.0 1007.5
2018-Feb-16 02:30S 38°55' E 019°48'3 1.4 1006.5
2018-Feb-16 00:30S 38°58' E 019°50'2 0.4 1004.9
2018-Feb-15 19:30S 38°59' E 019°51'0 0.0 1005.8
2018-Feb-15 18:30S 38°59' E 019°51'1 0.8 1006.0
2018-Feb-15 17:30S 38°59' E 019°52'0 0.0 1006.4
2018-Feb-15 16:30S 38°59' E 019°52'1 0.6 1006.9
2018-Feb-15 15:30S 38°58' E 019°52'0 0.5 1007.0
2018-Feb-15 14:30S 38°58' E 019°52'2 1.5 1007.8
2018-Feb-15 13:30S 38°57' E 019°53'11 1.4 1008.3
2018-Feb-15 05:30S 38°53' E 020°07'2 2.2 1012.3
2018-Feb-15 04:30S 38°52' E 020°09'1 0.8 1012.2
2018-Feb-15 03:30S 38°51' E 020°10'2 2.0 1012.0
2018-Feb-15 02:30S 38°50' E 020°12'4 2.0 1012.0
2018-Feb-15 00:30S 38°48' E 020°16'8 2.6 1013.1
2018-Feb-14 21:30S 38°44' E 020°25'2 1.8 1014.2
2018-Feb-14 20:30S 38°43' E 020°26'7 7.0 1014.2
2018-Feb-14 19:30S 38°38' E 020°34'0 0.0 1014.4
2018-Feb-14 18:30S 38°38' E 020°34'4 4.1 1013.5
2018-Feb-14 17:30S 38°35' E 020°36'2 2.4 1012.8
2018-Feb-14 16:30S 38°34' E 020°39'3 2.8 1012.7
2018-Feb-14 15:30S 38°32' E 020°41'   1012.6

Dump ship's entire track history